sensor_id;sensor_type;location;lat;lon;timestamp;P1;durP1;ratioP1;P2;durP2;ratioP2
2488;SDS011;1255;48.716;9.124;2024-01-07T00:00:41;8.00;;;5.20;;
2488;SDS011;1255;48.716;9.124;2024-01-07T00:03:08;8.15;;;5.00;;
2488;SDS011;1255;48.716;9.124;2024-01-07T00:05:36;9.63;;;5.95;;
2488;SDS011;1255;48.716;9.124;2024-01-07T00:08:03;6.10;;;4.30;;
2488;SDS011;1255;48.716;9.124;2024-01-07T00:10:31;6.82;;;5.22;;
2488;SDS011;1255;48.716;9.124;2024-01-07T00:12:57;9.57;;;5.72;;
2488;SDS011;1255;48.716;9.124;2024-01-07T00:15:24;8.32;;;6.60;;
2488;SDS011;1255;48.716;9.124;2024-01-07T00:17:52;7.47;;;4.90;;
2488;SDS011;1255;48.716;9.124;2024-01-07T00:20:18;9.02;;;5.78;;
2488;SDS011;1255;48.716;9.124;2024-01-07T00:22:46;6.60;;;4.50;;
2488;SDS011;1255;48.716;9.124;2024-01-07T00:25:13;7.82;;;5.53;;
2488;SDS011;1255;48.716;9.124;2024-01-07T00:27:40;10.43;;;5.68;;
2488;SDS011;1255;48.716;9.124;2024-01-07T00:30:07;9.77;;;5.63;;
2488;SDS011;1255;48.716;9.124;2024-01-07T00:32:34;5.70;;;4.75;;
2488;SDS011;1255;48.716;9.124;2024-01-07T00:35:00;6.20;;;4.15;;
2488;SDS011;1255;48.716;9.124;2024-01-07T00:37:27;7.45;;;5.63;;
2488;SDS011;1255;48.716;9.124;2024-01-07T00:39:55;10.70;;;5.05;;
2488;SDS011;1255;48.716;9.124;2024-01-07T00:42:22;6.93;;;4.82;;
2488;SDS011;1255;48.716;9.124;2024-01-07T00:44:49;9.38;;;4.85;;
2488;SDS011;1255;48.716;9.124;2024-01-07T00:47:15;7.95;;;5.30;;
2488;SDS011;1255;48.716;9.124;2024-01-07T00:49:42;8.20;;;5.05;;
2488;SDS011;1255;48.716;9.124;2024-01-07T00:52:09;10.07;;;6.35;;
2488;SDS011;1255;48.716;9.124;2024-01-07T00:54:35;6.15;;;4.25;;
2488;SDS011;1255;48.716;9.124;2024-01-07T00:57:04;6.38;;;5.78;;
2488;SDS011;1255;48.716;9.124;2024-01-07T00:59:30;6.22;;;4.32;;
2488;SDS011;1255;48.716;9.124;2024-01-07T01:01:57;10.52;;;4.95;;
2488;SDS011;1255;48.716;9.124;2024-01-07T01:04:24;8.50;;;5.03;;
2488;SDS011;1255;48.716;9.124;2024-01-07T01:06:50;10.23;;;5.85;;
2488;SDS011;1255;48.716;9.124;2024-01-07T01:09:17;7.18;;;4.63;;
2488;SDS011;1255;48.716;9.124;2024-01-07T01:11:44;8.18;;;4.75;;
2488;SDS011;1255;48.716;9.124;2024-01-07T01:14:12;8.02;;;5.32;;
2488;SDS011;1255;48.716;9.124;2024-01-07T01:16:39;6.78;;;5.38;;
2488;SDS011;1255;48.716;9.124;2024-01-07T01:19:05;6.97;;;5.00;;
2488;SDS011;1255;48.716;9.124;2024-01-07T01:21:33;8.55;;;4.82;;
2488;SDS011;1255;48.716;9.124;2024-01-07T01:24:00;9.23;;;5.78;;
2488;SDS011;1255;48.716;9.124;2024-01-07T01:26:27;9.32;;;6.25;;
2488;SDS011;1255;48.716;9.124;2024-01-07T01:28:53;8.50;;;5.13;;
2488;SDS011;1255;48.716;9.124;2024-01-07T01:31:21;12.25;;;5.28;;
2488;SDS011;1255;48.716;9.124;2024-01-07T01:33:48;12.48;;;6.90;;
2488;SDS011;1255;48.716;9.124;2024-01-07T01:36:15;14.18;;;6.75;;
2488;SDS011;1255;48.716;9.124;2024-01-07T01:38:42;8.65;;;4.88;;
2488;SDS011;1255;48.716;9.124;2024-01-07T01:41:08;6.68;;;4.50;;
2488;SDS011;1255;48.716;9.124;2024-01-07T01:43:35;9.45;;;6.18;;
2488;SDS011;1255;48.716;9.124;2024-01-07T01:46:02;7.53;;;5.10;;
2488;SDS011;1255;48.716;9.124;2024-01-07T01:48:30;10.05;;;4.90;;
2488;SDS011;1255;48.716;9.124;2024-01-07T01:50:57;8.75;;;5.45;;
2488;SDS011;1255;48.716;9.124;2024-01-07T01:53:24;10.00;;;6.47;;
2488;SDS011;1255;48.716;9.124;2024-01-07T01:55:52;9.95;;;6.00;;
2488;SDS011;1255;48.716;9.124;2024-01-07T01:58:21;12.18;;;5.30;;
2488;SDS011;1255;48.716;9.124;2024-01-07T02:00:49;10.57;;;5.95;;
2488;SDS011;1255;48.716;9.124;2024-01-07T02:03:16;13.93;;;6.45;;
2488;SDS011;1255;48.716;9.124;2024-01-07T02:05:44;10.05;;;5.82;;
2488;SDS011;1255;48.716;9.124;2024-01-07T02:08:11;8.02;;;4.80;;
2488;SDS011;1255;48.716;9.124;2024-01-07T02:10:38;13.45;;;6.40;;
2488;SDS011;1255;48.716;9.124;2024-01-07T02:13:04;12.95;;;6.80;;
2488;SDS011;1255;48.716;9.124;2024-01-07T02:15:31;11.27;;;6.03;;
2488;SDS011;1255;48.716;9.124;2024-01-07T02:17:58;9.88;;;6.00;;
2488;SDS011;1255;48.716;9.124;2024-01-07T02:20:25;9.07;;;5.57;;
2488;SDS011;1255;48.716;9.124;2024-01-07T02:22:53;14.10;;;6.82;;
2488;SDS011;1255;48.716;9.124;2024-01-07T02:25:23;15.55;;;7.43;;
2488;SDS011;1255;48.716;9.124;2024-01-07T02:27:51;11.57;;;5.18;;
2488;SDS011;1255;48.716;9.124;2024-01-07T02:30:17;8.57;;;4.95;;
2488;SDS011;1255;48.716;9.124;2024-01-07T02:32:44;11.55;;;6.20;;
2488;SDS011;1255;48.716;9.124;2024-01-07T02:35:11;8.23;;;6.10;;
2488;SDS011;1255;48.716;9.124;2024-01-07T02:37:38;7.63;;;4.97;;
2488;SDS011;1255;48.716;9.124;2024-01-07T02:40:05;13.43;;;6.40;;
2488;SDS011;1255;48.716;9.124;2024-01-07T02:42:34;9.95;;;6.63;;
2488;SDS011;1255;48.716;9.124;2024-01-07T02:45:00;12.13;;;6.68;;
2488;SDS011;1255;48.716;9.124;2024-01-07T02:47:27;11.20;;;6.35;;
2488;SDS011;1255;48.716;9.124;2024-01-07T02:49:54;13.40;;;7.60;;
2488;SDS011;1255;48.716;9.124;2024-01-07T02:52:21;10.32;;;5.85;;
2488;SDS011;1255;48.716;9.124;2024-01-07T02:54:47;7.85;;;6.20;;
2488;SDS011;1255;48.716;9.124;2024-01-07T02:57:14;9.38;;;5.60;;
2488;SDS011;1255;48.716;9.124;2024-01-07T02:59:42;10.63;;;6.55;;
2488;SDS011;1255;48.716;9.124;2024-01-07T03:02:09;11.25;;;6.45;;
2488;SDS011;1255;48.716;9.124;2024-01-07T03:04:36;8.55;;;5.60;;
2488;SDS011;1255;48.716;9.124;2024-01-07T03:07:02;8.02;;;5.70;;
2488;SDS011;1255;48.716;9.124;2024-01-07T03:09:29;9.20;;;4.85;;
2488;SDS011;1255;48.716;9.124;2024-01-07T03:11:56;9.45;;;5.63;;
2488;SDS011;1255;48.716;9.124;2024-01-07T03:14:23;8.85;;;5.80;;
2488;SDS011;1255;48.716;9.124;2024-01-07T03:16:51;11.05;;;6.57;;
2488;SDS011;1255;48.716;9.124;2024-01-07T03:19:17;9.55;;;5.95;;
2488;SDS011;1255;48.716;9.124;2024-01-07T03:21:45;8.75;;;5.93;;
2488;SDS011;1255;48.716;9.124;2024-01-07T03:24:13;6.45;;;4.75;;
2488;SDS011;1255;48.716;9.124;2024-01-07T03:26:40;13.20;;;6.68;;
2488;SDS011;1255;48.716;9.124;2024-01-07T03:29:07;11.57;;;6.70;;
2488;SDS011;1255;48.716;9.124;2024-01-07T03:31:33;11.35;;;6.18;;
2488;SDS011;1255;48.716;9.124;2024-01-07T03:34:01;10.80;;;6.72;;
2488;SDS011;1255;48.716;9.124;2024-01-07T03:36:28;10.88;;;6.10;;
2488;SDS011;1255;48.716;9.124;2024-01-07T03:38:55;12.52;;;6.40;;
2488;SDS011;1255;48.716;9.124;2024-01-07T03:41:22;7.10;;;5.50;;
2488;SDS011;1255;48.716;9.124;2024-01-07T03:43:49;9.07;;;5.88;;
2488;SDS011;1255;48.716;9.124;2024-01-07T03:46:15;11.95;;;6.22;;
2488;SDS011;1255;48.716;9.124;2024-01-07T03:48:42;8.52;;;5.82;;
2488;SDS011;1255;48.716;9.124;2024-01-07T03:51:11;7.13;;;4.63;;
2488;SDS011;1255;48.716;9.124;2024-01-07T03:53:38;8.82;;;5.45;;
2488;SDS011;1255;48.716;9.124;2024-01-07T03:56:05;10.85;;;5.47;;
2488;SDS011;1255;48.716;9.124;2024-01-07T03:58:32;10.68;;;5.20;;
2488;SDS011;1255;48.716;9.124;2024-01-07T04:00:59;11.07;;;6.38;;
2488;SDS011;1255;48.716;9.124;2024-01-07T04:03:26;9.05;;;5.50;;
2488;SDS011;1255;48.716;9.124;2024-01-07T04:05:53;7.25;;;4.80;;
2488;SDS011;1255;48.716;9.124;2024-01-07T04:08:21;13.45;;;5.95;;
2488;SDS011;1255;48.716;9.124;2024-01-07T04:10:48;14.27;;;5.63;;
2488;SDS011;1255;48.716;9.124;2024-01-07T04:13:15;9.20;;;5.43;;
2488;SDS011;1255;48.716;9.124;2024-01-07T04:15:42;9.45;;;5.40;;
2488;SDS011;1255;48.716;9.124;2024-01-07T04:18:09;7.95;;;6.15;;
2488;SDS011;1255;48.716;9.124;2024-01-07T04:20:35;8.35;;;5.63;;
2488;SDS011;1255;48.716;9.124;2024-01-07T04:23:02;5.53;;;4.80;;
2488;SDS011;1255;48.716;9.124;2024-01-07T04:25:30;7.50;;;6.68;;
2488;SDS011;1255;48.716;9.124;2024-01-07T04:27:57;10.07;;;5.82;;
2488;SDS011;1255;48.716;9.124;2024-01-07T04:30:24;11.85;;;8.23;;
2488;SDS011;1255;48.716;9.124;2024-01-07T04:32:50;12.70;;;7.95;;
2488;SDS011;1255;48.716;9.124;2024-01-07T04:35:17;13.45;;;6.30;;
2488;SDS011;1255;48.716;9.124;2024-01-07T04:37:44;10.05;;;5.75;;
2488;SDS011;1255;48.716;9.124;2024-01-07T04:40:11;10.27;;;6.15;;
2488;SDS011;1255;48.716;9.124;2024-01-07T04:42:39;12.02;;;5.45;;
2488;SDS011;1255;48.716;9.124;2024-01-07T04:45:06;10.02;;;5.80;;
2488;SDS011;1255;48.716;9.124;2024-01-07T04:47:33;9.38;;;6.38;;
2488;SDS011;1255;48.716;9.124;2024-01-07T04:50:00;7.78;;;5.25;;
2488;SDS011;1255;48.716;9.124;2024-01-07T04:52:27;8.90;;;5.25;;
2488;SDS011;1255;48.716;9.124;2024-01-07T04:54:54;8.77;;;6.78;;
2488;SDS011;1255;48.716;9.124;2024-01-07T04:57:21;9.50;;;5.00;;
2488;SDS011;1255;48.716;9.124;2024-01-07T04:59:50;7.95;;;5.13;;
2488;SDS011;1255;48.716;9.124;2024-01-07T05:02:17;4.68;;;4.28;;
2488;SDS011;1255;48.716;9.124;2024-01-07T05:04:44;7.75;;;4.75;;
2488;SDS011;1255;48.716;9.124;2024-01-07T05:07:10;10.40;;;6.55;;
2488;SDS011;1255;48.716;9.124;2024-01-07T05:09:37;7.15;;;5.35;;
2488;SDS011;1255;48.716;9.124;2024-01-07T05:12:05;7.30;;;5.10;;
2488;SDS011;1255;48.716;9.124;2024-01-07T05:14:32;9.43;;;5.28;;
2488;SDS011;1255;48.716;9.124;2024-01-07T05:17:00;10.57;;;6.57;;
2488;SDS011;1255;48.716;9.124;2024-01-07T05:19:27;7.70;;;5.22;;
2488;SDS011;1255;48.716;9.124;2024-01-07T05:21:54;10.25;;;6.03;;
2488;SDS011;1255;48.716;9.124;2024-01-07T05:24:20;7.60;;;5.88;;
2488;SDS011;1255;48.716;9.124;2024-01-07T05:26:47;8.00;;;5.97;;
2488;SDS011;1255;48.716;9.124;2024-01-07T05:29:14;5.68;;;4.32;;
2488;SDS011;1255;48.716;9.124;2024-01-07T05:31:41;9.30;;;6.05;;
2488;SDS011;1255;48.716;9.124;2024-01-07T05:34:09;6.93;;;4.90;;
2488;SDS011;1255;48.716;9.124;2024-01-07T05:36:35;9.98;;;6.38;;
2488;SDS011;1255;48.716;9.124;2024-01-07T05:39:02;7.47;;;5.20;;
2488;SDS011;1255;48.716;9.124;2024-01-07T05:41:29;7.90;;;4.82;;
2488;SDS011;1255;48.716;9.124;2024-01-07T05:43:56;7.57;;;5.15;;
2488;SDS011;1255;48.716;9.124;2024-01-07T05:46:22;7.97;;;6.22;;
2488;SDS011;1255;48.716;9.124;2024-01-07T05:48:49;7.55;;;4.60;;
2488;SDS011;1255;48.716;9.124;2024-01-07T05:51:18;9.38;;;5.15;;
2488;SDS011;1255;48.716;9.124;2024-01-07T05:53:44;7.55;;;5.13;;
2488;SDS011;1255;48.716;9.124;2024-01-07T05:56:11;6.60;;;5.10;;
2488;SDS011;1255;48.716;9.124;2024-01-07T05:58:38;7.15;;;5.10;;
2488;SDS011;1255;48.716;9.124;2024-01-07T06:01:05;7.45;;;4.78;;
2488;SDS011;1255;48.716;9.124;2024-01-07T06:03:33;8.52;;;4.38;;
2488;SDS011;1255;48.716;9.124;2024-01-07T06:06:00;10.07;;;5.35;;
2488;SDS011;1255;48.716;9.124;2024-01-07T06:08:28;5.93;;;4.38;;
2488;SDS011;1255;48.716;9.124;2024-01-07T06:10:55;5.75;;;4.47;;
2488;SDS011;1255;48.716;9.124;2024-01-07T06:13:22;6.38;;;4.25;;
2488;SDS011;1255;48.716;9.124;2024-01-07T06:15:49;7.18;;;5.32;;
2488;SDS011;1255;48.716;9.124;2024-01-07T06:18:15;5.15;;;4.70;;
2488;SDS011;1255;48.716;9.124;2024-01-07T06:20:42;9.63;;;5.20;;
2488;SDS011;1255;48.716;9.124;2024-01-07T06:23:09;7.75;;;5.75;;
2488;SDS011;1255;48.716;9.124;2024-01-07T06:25:37;9.65;;;4.80;;
2488;SDS011;1255;48.716;9.124;2024-01-07T06:28:04;8.20;;;5.18;;
2488;SDS011;1255;48.716;9.124;2024-01-07T06:30:31;8.40;;;4.95;;
2488;SDS011;1255;48.716;9.124;2024-01-07T06:32:58;6.18;;;4.97;;
2488;SDS011;1255;48.716;9.124;2024-01-07T06:35:25;8.00;;;4.75;;
2488;SDS011;1255;48.716;9.124;2024-01-07T06:37:52;6.55;;;4.97;;
2488;SDS011;1255;48.716;9.124;2024-01-07T06:40:19;10.15;;;5.13;;
2488;SDS011;1255;48.716;9.124;2024-01-07T06:42:47;5.75;;;4.32;;
2488;SDS011;1255;48.716;9.124;2024-01-07T06:45:15;8.23;;;5.22;;
2488;SDS011;1255;48.716;9.124;2024-01-07T06:47:42;9.10;;;5.93;;
2488;SDS011;1255;48.716;9.124;2024-01-07T06:50:09;6.90;;;4.88;;
2488;SDS011;1255;48.716;9.124;2024-01-07T06:52:36;6.55;;;5.22;;
2488;SDS011;1255;48.716;9.124;2024-01-07T06:55:03;7.85;;;5.07;;
2488;SDS011;1255;48.716;9.124;2024-01-07T06:57:30;8.18;;;4.72;;
2488;SDS011;1255;48.716;9.124;2024-01-07T06:59:58;8.57;;;6.47;;
2488;SDS011;1255;48.716;9.124;2024-01-07T07:02:25;8.30;;;5.30;;
2488;SDS011;1255;48.716;9.124;2024-01-07T07:04:52;8.85;;;4.55;;
2488;SDS011;1255;48.716;9.124;2024-01-07T07:07:18;8.07;;;5.55;;
2488;SDS011;1255;48.716;9.124;2024-01-07T07:09:45;9.85;;;5.20;;
2488;SDS011;1255;48.716;9.124;2024-01-07T07:12:12;6.20;;;5.07;;
2488;SDS011;1255;48.716;9.124;2024-01-07T07:14:43;6.95;;;4.55;;
2488;SDS011;1255;48.716;9.124;2024-01-07T07:17:11;5.20;;;4.32;;
2488;SDS011;1255;48.716;9.124;2024-01-07T07:19:37;6.82;;;5.32;;
2488;SDS011;1255;48.716;9.124;2024-01-07T07:22:04;7.55;;;4.65;;
2488;SDS011;1255;48.716;9.124;2024-01-07T07:24:31;7.90;;;5.53;;
2488;SDS011;1255;48.716;9.124;2024-01-07T07:26:58;8.57;;;5.10;;
2488;SDS011;1255;48.716;9.124;2024-01-07T07:29:24;12.55;;;6.50;;
2488;SDS011;1255;48.716;9.124;2024-01-07T07:31:51;11.93;;;5.75;;
2488;SDS011;1255;48.716;9.124;2024-01-07T07:34:19;7.13;;;4.82;;
2488;SDS011;1255;48.716;9.124;2024-01-07T07:36:46;5.80;;;3.78;;
2488;SDS011;1255;48.716;9.124;2024-01-07T07:39:13;9.02;;;5.75;;
2488;SDS011;1255;48.716;9.124;2024-01-07T07:41:39;7.70;;;4.63;;
2488;SDS011;1255;48.716;9.124;2024-01-07T07:44:06;7.82;;;5.38;;
2488;SDS011;1255;48.716;9.124;2024-01-07T07:46:33;5.95;;;5.25;;
2488;SDS011;1255;48.716;9.124;2024-01-07T07:49:00;8.65;;;5.22;;
2488;SDS011;1255;48.716;9.124;2024-01-07T07:51:28;6.15;;;4.45;;
2488;SDS011;1255;48.716;9.124;2024-01-07T07:53:55;4.28;;;3.88;;
2488;SDS011;1255;48.716;9.124;2024-01-07T07:56:22;7.30;;;4.80;;
2488;SDS011;1255;48.716;9.124;2024-01-07T07:58:49;6.90;;;4.50;;
2488;SDS011;1255;48.716;9.124;2024-01-07T08:01:17;5.57;;;3.90;;
2488;SDS011;1255;48.716;9.124;2024-01-07T08:03:44;5.38;;;3.85;;
2488;SDS011;1255;48.716;9.124;2024-01-07T08:06:11;7.03;;;4.65;;
2488;SDS011;1255;48.716;9.124;2024-01-07T08:08:39;4.57;;;3.60;;
2488;SDS011;1255;48.716;9.124;2024-01-07T08:11:06;8.10;;;5.55;;
2488;SDS011;1255;48.716;9.124;2024-01-07T08:13:37;5.45;;;4.72;;
2488;SDS011;1255;48.716;9.124;2024-01-07T08:16:04;7.93;;;4.68;;
2488;SDS011;1255;48.716;9.124;2024-01-07T08:18:31;5.07;;;3.50;;
2488;SDS011;1255;48.716;9.124;2024-01-07T08:20:58;4.22;;;3.40;;
2488;SDS011;1255;48.716;9.124;2024-01-07T08:23:25;6.57;;;4.20;;
2488;SDS011;1255;48.716;9.124;2024-01-07T08:25:53;3.22;;;2.90;;
2488;SDS011;1255;48.716;9.124;2024-01-07T08:28:20;7.32;;;3.75;;
2488;SDS011;1255;48.716;9.124;2024-01-07T08:30:47;4.28;;;3.47;;
2488;SDS011;1255;48.716;9.124;2024-01-07T08:33:14;6.15;;;3.85;;
2488;SDS011;1255;48.716;9.124;2024-01-07T08:35:41;3.88;;;3.45;;
2488;SDS011;1255;48.716;9.124;2024-01-07T08:38:08;4.43;;;4.03;;
2488;SDS011;1255;48.716;9.124;2024-01-07T08:40:35;4.57;;;3.45;;
2488;SDS011;1255;48.716;9.124;2024-01-07T08:43:03;4.47;;;4.07;;
2488;SDS011;1255;48.716;9.124;2024-01-07T08:45:30;5.13;;;3.92;;
2488;SDS011;1255;48.716;9.124;2024-01-07T08:47:56;4.25;;;3.83;;
2488;SDS011;1255;48.716;9.124;2024-01-07T08:50:23;6.15;;;4.35;;
2488;SDS011;1255;48.716;9.124;2024-01-07T08:52:55;3.80;;;3.40;;
2488;SDS011;1255;48.716;9.124;2024-01-07T08:55:31;3.33;;;2.90;;
2488;SDS011;1255;48.716;9.124;2024-01-07T08:58:01;4.80;;;3.25;;
2488;SDS011;1255;48.716;9.124;2024-01-07T09:00:29;6.88;;;4.10;;
2488;SDS011;1255;48.716;9.124;2024-01-07T09:02:58;6.07;;;4.22;;
2488;SDS011;1255;48.716;9.124;2024-01-07T09:05:27;6.20;;;3.50;;
2488;SDS011;1255;48.716;9.124;2024-01-07T09:07:55;7.00;;;4.72;;
2488;SDS011;1255;48.716;9.124;2024-01-07T09:10:22;6.85;;;4.80;;
2488;SDS011;1255;48.716;9.124;2024-01-07T09:12:49;5.53;;;4.18;;
2488;SDS011;1255;48.716;9.124;2024-01-07T09:15:19;4.75;;;4.25;;
2488;SDS011;1255;48.716;9.124;2024-01-07T09:17:46;4.40;;;3.40;;
2488;SDS011;1255;48.716;9.124;2024-01-07T09:20:13;3.45;;;2.80;;
2488;SDS011;1255;48.716;9.124;2024-01-07T09:22:40;8.88;;;3.53;;
2488;SDS011;1255;48.716;9.124;2024-01-07T09:25:08;5.18;;;3.78;;
2488;SDS011;1255;48.716;9.124;2024-01-07T09:27:36;6.13;;;4.05;;
2488;SDS011;1255;48.716;9.124;2024-01-07T09:30:03;5.05;;;3.92;;
2488;SDS011;1255;48.716;9.124;2024-01-07T09:32:32;4.78;;;3.38;;
2488;SDS011;1255;48.716;9.124;2024-01-07T09:34:58;3.80;;;2.75;;
2488;SDS011;1255;48.716;9.124;2024-01-07T09:37:25;4.20;;;3.80;;
2488;SDS011;1255;48.716;9.124;2024-01-07T09:39:52;3.45;;;2.75;;
2488;SDS011;1255;48.716;9.124;2024-01-07T09:42:19;4.18;;;2.85;;
2488;SDS011;1255;48.716;9.124;2024-01-07T09:44:46;3.20;;;2.58;;
2488;SDS011;1255;48.716;9.124;2024-01-07T09:47:13;3.00;;;2.75;;
2488;SDS011;1255;48.716;9.124;2024-01-07T09:49:42;3.38;;;2.70;;
2488;SDS011;1255;48.716;9.124;2024-01-07T09:52:11;3.30;;;2.85;;
2488;SDS011;1255;48.716;9.124;2024-01-07T09:54:38;3.70;;;2.85;;
2488;SDS011;1255;48.716;9.124;2024-01-07T09:57:06;5.50;;;2.72;;
2488;SDS011;1255;48.716;9.124;2024-01-07T09:59:33;5.68;;;3.00;;
2488;SDS011;1255;48.716;9.124;2024-01-07T10:02:01;3.78;;;2.50;;
2488;SDS011;1255;48.716;9.124;2024-01-07T10:04:29;4.20;;;3.90;;
2488;SDS011;1255;48.716;9.124;2024-01-07T10:06:57;2.55;;;2.22;;
2488;SDS011;1255;48.716;9.124;2024-01-07T10:09:24;2.63;;;2.42;;
2488;SDS011;1255;48.716;9.124;2024-01-07T10:11:55;5.20;;;3.05;;
2488;SDS011;1255;48.716;9.124;2024-01-07T10:14:22;6.00;;;2.90;;
2488;SDS011;1255;48.716;9.124;2024-01-07T10:16:49;4.70;;;3.10;;
2488;SDS011;1255;48.716;9.124;2024-01-07T10:19:19;3.50;;;2.20;;
2488;SDS011;1255;48.716;9.124;2024-01-07T10:21:48;4.35;;;2.95;;
2488;SDS011;1255;48.716;9.124;2024-01-07T10:24:27;6.63;;;3.13;;
2488;SDS011;1255;48.716;9.124;2024-01-07T10:27:02;6.03;;;4.30;;
2488;SDS011;1255;48.716;9.124;2024-01-07T10:29:29;4.82;;;2.80;;
2488;SDS011;1255;48.716;9.124;2024-01-07T10:31:57;4.00;;;3.25;;
2488;SDS011;1255;48.716;9.124;2024-01-07T10:34:24;3.13;;;2.83;;
2488;SDS011;1255;48.716;9.124;2024-01-07T10:36:52;6.88;;;3.65;;
2488;SDS011;1255;48.716;9.124;2024-01-07T10:39:22;5.32;;;3.40;;
2488;SDS011;1255;48.716;9.124;2024-01-07T10:41:50;4.93;;;3.45;;
2488;SDS011;1255;48.716;9.124;2024-01-07T10:44:22;3.78;;;2.80;;
2488;SDS011;1255;48.716;9.124;2024-01-07T10:46:49;3.25;;;2.95;;
2488;SDS011;1255;48.716;9.124;2024-01-07T10:49:19;6.07;;;3.38;;
2488;SDS011;1255;48.716;9.124;2024-01-07T10:51:47;4.07;;;2.85;;
2488;SDS011;1255;48.716;9.124;2024-01-07T10:54:24;3.35;;;3.05;;
2488;SDS011;1255;48.716;9.124;2024-01-07T10:56:56;3.72;;;2.72;;
2488;SDS011;1255;48.716;9.124;2024-01-07T10:59:25;6.60;;;4.80;;
2488;SDS011;1255;48.716;9.124;2024-01-07T11:01:53;5.10;;;3.20;;
2488;SDS011;1255;48.716;9.124;2024-01-07T11:04:20;3.95;;;3.30;;
2488;SDS011;1255;48.716;9.124;2024-01-07T11:06:51;6.13;;;4.20;;
2488;SDS011;1255;48.716;9.124;2024-01-07T11:09:26;3.80;;;3.10;;
2488;SDS011;1255;48.716;9.124;2024-01-07T11:11:58;4.32;;;3.38;;
2488;SDS011;1255;48.716;9.124;2024-01-07T11:14:35;3.78;;;3.28;;
2488;SDS011;1255;48.716;9.124;2024-01-07T11:17:04;3.97;;;2.63;;
2488;SDS011;1255;48.716;9.124;2024-01-07T11:19:31;4.65;;;3.55;;
2488;SDS011;1255;48.716;9.124;2024-01-07T11:24:51;4.05;;;2.60;;
2488;SDS011;1255;48.716;9.124;2024-01-07T11:27:18;4.22;;;3.33;;
2488;SDS011;1255;48.716;9.124;2024-01-07T11:29:52;3.88;;;3.42;;
2488;SDS011;1255;48.716;9.124;2024-01-07T11:32:21;4.07;;;2.90;;
2488;SDS011;1255;48.716;9.124;2024-01-07T11:34:50;4.15;;;2.95;;
2488;SDS011;1255;48.716;9.124;2024-01-07T11:37:18;5.70;;;2.88;;
2488;SDS011;1255;48.716;9.124;2024-01-07T11:39:45;4.43;;;3.97;;
2488;SDS011;1255;48.716;9.124;2024-01-07T11:42:14;7.72;;;3.60;;
2488;SDS011;1255;48.716;9.124;2024-01-07T11:44:47;3.40;;;2.58;;
2488;SDS011;1255;48.716;9.124;2024-01-07T11:47:15;3.97;;;3.30;;
2488;SDS011;1255;48.716;9.124;2024-01-07T11:49:42;3.50;;;2.38;;
2488;SDS011;1255;48.716;9.124;2024-01-07T11:52:09;4.15;;;2.80;;
2488;SDS011;1255;48.716;9.124;2024-01-07T11:54:36;6.07;;;3.45;;
2488;SDS011;1255;48.716;9.124;2024-01-07T11:57:03;3.25;;;2.28;;
2488;SDS011;1255;48.716;9.124;2024-01-07T11:59:32;4.55;;;2.88;;
2488;SDS011;1255;48.716;9.124;2024-01-07T12:01:59;11.13;;;4.60;;
2488;SDS011;1255;48.716;9.124;2024-01-07T12:04:26;3.45;;;2.90;;
2488;SDS011;1255;48.716;9.124;2024-01-07T12:06:53;6.93;;;3.40;;
2488;SDS011;1255;48.716;9.124;2024-01-07T12:09:20;5.45;;;3.50;;
2488;SDS011;1255;48.716;9.124;2024-01-07T12:11:47;5.18;;;3.78;;
2488;SDS011;1255;48.716;9.124;2024-01-07T12:14:14;5.22;;;3.10;;
2488;SDS011;1255;48.716;9.124;2024-01-07T12:16:42;4.63;;;2.53;;
2488;SDS011;1255;48.716;9.124;2024-01-07T12:19:09;4.53;;;2.42;;
2488;SDS011;1255;48.716;9.124;2024-01-07T12:21:36;3.13;;;2.83;;
2488;SDS011;1255;48.716;9.124;2024-01-07T12:24:05;3.65;;;3.35;;
2488;SDS011;1255;48.716;9.124;2024-01-07T12:26:32;4.65;;;2.88;;
2488;SDS011;1255;48.716;9.124;2024-01-07T12:28:59;4.18;;;2.67;;
2488;SDS011;1255;48.716;9.124;2024-01-07T12:31:28;3.55;;;3.25;;
2488;SDS011;1255;48.716;9.124;2024-01-07T12:33:57;5.65;;;3.85;;
2488;SDS011;1255;48.716;9.124;2024-01-07T12:36:24;3.60;;;3.30;;
2488;SDS011;1255;48.716;9.124;2024-01-07T12:38:51;5.05;;;3.75;;
2488;SDS011;1255;48.716;9.124;2024-01-07T12:41:20;7.05;;;3.47;;
2488;SDS011;1255;48.716;9.124;2024-01-07T12:43:47;5.45;;;3.60;;
2488;SDS011;1255;48.716;9.124;2024-01-07T12:46:13;3.80;;;3.42;;
2488;SDS011;1255;48.716;9.124;2024-01-07T12:48:40;4.75;;;3.40;;
2488;SDS011;1255;48.716;9.124;2024-01-07T12:51:08;5.10;;;3.25;;
2488;SDS011;1255;48.716;9.124;2024-01-07T12:53:36;4.80;;;4.32;;
2488;SDS011;1255;48.716;9.124;2024-01-07T12:56:02;5.00;;;2.95;;
2488;SDS011;1255;48.716;9.124;2024-01-07T12:58:29;5.00;;;4.30;;
2488;SDS011;1255;48.716;9.124;2024-01-07T13:00:56;4.28;;;3.33;;
2488;SDS011;1255;48.716;9.124;2024-01-07T13:03:23;6.93;;;3.42;;
2488;SDS011;1255;48.716;9.124;2024-01-07T13:05:50;4.53;;;3.40;;
2488;SDS011;1255;48.716;9.124;2024-01-07T13:08:18;3.50;;;3.08;;
2488;SDS011;1255;48.716;9.124;2024-01-07T13:10:47;4.85;;;4.05;;
2488;SDS011;1255;48.716;9.124;2024-01-07T13:13:14;6.68;;;5.10;;
2488;SDS011;1255;48.716;9.124;2024-01-07T13:15:40;5.80;;;4.28;;
2488;SDS011;1255;48.716;9.124;2024-01-07T13:18:07;6.90;;;3.97;;
2488;SDS011;1255;48.716;9.124;2024-01-07T13:20:36;3.90;;;3.25;;
2488;SDS011;1255;48.716;9.124;2024-01-07T13:23:04;5.22;;;4.03;;
2488;SDS011;1255;48.716;9.124;2024-01-07T13:25:32;4.30;;;3.90;;
2488;SDS011;1255;48.716;9.124;2024-01-07T13:27:59;5.35;;;4.03;;
2488;SDS011;1255;48.716;9.124;2024-01-07T13:30:26;4.38;;;3.22;;
2488;SDS011;1255;48.716;9.124;2024-01-07T13:32:53;6.47;;;3.60;;
2488;SDS011;1255;48.716;9.124;2024-01-07T13:35:22;6.22;;;3.33;;
2488;SDS011;1255;48.716;9.124;2024-01-07T13:37:49;3.80;;;3.50;;
2488;SDS011;1255;48.716;9.124;2024-01-07T13:40:19;6.18;;;4.25;;
2488;SDS011;1255;48.716;9.124;2024-01-07T13:42:47;6.18;;;4.25;;
2488;SDS011;1255;48.716;9.124;2024-01-07T13:45:16;4.55;;;3.33;;
2488;SDS011;1255;48.716;9.124;2024-01-07T13:47:45;5.43;;;4.05;;
2488;SDS011;1255;48.716;9.124;2024-01-07T13:50:12;6.45;;;4.43;;
2488;SDS011;1255;48.716;9.124;2024-01-07T13:52:38;5.45;;;4.32;;
2488;SDS011;1255;48.716;9.124;2024-01-07T13:55:06;7.45;;;4.40;;
2488;SDS011;1255;48.716;9.124;2024-01-07T13:57:34;7.18;;;4.72;;
2488;SDS011;1255;48.716;9.124;2024-01-07T14:00:02;5.35;;;3.33;;
2488;SDS011;1255;48.716;9.124;2024-01-07T14:02:34;6.50;;;4.00;;
2488;SDS011;1255;48.716;9.124;2024-01-07T14:05:02;6.75;;;4.22;;
2488;SDS011;1255;48.716;9.124;2024-01-07T14:07:31;4.93;;;3.05;;
2488;SDS011;1255;48.716;9.124;2024-01-07T14:09:58;4.07;;;3.65;;
2488;SDS011;1255;48.716;9.124;2024-01-07T14:12:24;6.13;;;3.80;;
2488;SDS011;1255;48.716;9.124;2024-01-07T14:14:51;5.90;;;3.65;;
2488;SDS011;1255;48.716;9.124;2024-01-07T14:17:19;4.60;;;4.05;;
2488;SDS011;1255;48.716;9.124;2024-01-07T14:19:46;7.05;;;3.97;;
2488;SDS011;1255;48.716;9.124;2024-01-07T14:22:13;6.10;;;4.63;;
2488;SDS011;1255;48.716;9.124;2024-01-07T14:24:40;6.22;;;5.43;;
2488;SDS011;1255;48.716;9.124;2024-01-07T14:27:07;7.10;;;4.72;;
2488;SDS011;1255;48.716;9.124;2024-01-07T14:29:36;6.40;;;3.72;;
2488;SDS011;1255;48.716;9.124;2024-01-07T14:32:03;5.00;;;3.10;;
2488;SDS011;1255;48.716;9.124;2024-01-07T14:34:32;8.23;;;4.88;;
2488;SDS011;1255;48.716;9.124;2024-01-07T14:36:58;5.82;;;4.75;;
2488;SDS011;1255;48.716;9.124;2024-01-07T14:39:25;9.07;;;4.10;;
2488;SDS011;1255;48.716;9.124;2024-01-07T14:41:52;4.78;;;4.28;;
2488;SDS011;1255;48.716;9.124;2024-01-07T14:44:19;8.35;;;5.03;;
2488;SDS011;1255;48.716;9.124;2024-01-07T14:46:46;5.82;;;4.22;;
2488;SDS011;1255;48.716;9.124;2024-01-07T14:49:13;5.07;;;4.18;;
2488;SDS011;1255;48.716;9.124;2024-01-07T14:51:41;7.18;;;3.95;;
2488;SDS011;1255;48.716;9.124;2024-01-07T14:54:08;11.15;;;4.00;;
2488;SDS011;1255;48.716;9.124;2024-01-07T14:56:35;6.03;;;4.53;;
2488;SDS011;1255;48.716;9.124;2024-01-07T14:59:01;7.15;;;4.65;;
2488;SDS011;1255;48.716;9.124;2024-01-07T15:01:28;5.03;;;4.15;;
2488;SDS011;1255;48.716;9.124;2024-01-07T15:03:55;7.15;;;4.03;;
2488;SDS011;1255;48.716;9.124;2024-01-07T15:06:21;5.38;;;4.63;;
2488;SDS011;1255;48.716;9.124;2024-01-07T15:08:50;6.30;;;4.20;;
2488;SDS011;1255;48.716;9.124;2024-01-07T15:11:18;5.40;;;4.50;;
2488;SDS011;1255;48.716;9.124;2024-01-07T15:13:45;4.90;;;3.90;;
2488;SDS011;1255;48.716;9.124;2024-01-07T15:16:12;6.30;;;5.30;;